sensor_id;sensor_type;location;lat;lon;timestamp;P1;durP1;ratioP1;P2;durP2;ratioP2
52858;SDS011;38721;53.098;6.596;2022-10-31T00:02:07;38.42;;;22.90;;
52858;SDS011;38721;53.098;6.596;2022-10-31T00:04:33;40.92;;;22.63;;
52858;SDS011;38721;53.098;6.596;2022-10-31T00:06:59;40.38;;;21.98;;
52858;SDS011;38721;53.098;6.596;2022-10-31T00:09:27;44.97;;;23.17;;
52858;SDS011;38721;53.098;6.596;2022-10-31T00:11:53;45.28;;;22.55;;
52858;SDS011;38721;53.098;6.596;2022-10-31T00:14:18;42.72;;;22.92;;
52858;SDS011;38721;53.098;6.596;2022-10-31T00:16:44;44.30;;;22.13;;
52858;SDS011;38721;53.098;6.596;2022-10-31T00:19:10;42.50;;;23.05;;
52858;SDS011;38721;53.098;6.596;2022-10-31T00:21:35;42.88;;;22.17;;
52858;SDS011;38721;53.098;6.596;2022-10-31T00:24:07;45.95;;;23.67;;
52858;SDS011;38721;53.098;6.596;2022-10-31T00:26:33;43.95;;;23.10;;
52858;SDS011;38721;53.098;6.596;2022-10-31T00:28:59;40.53;;;21.95;;
52858;SDS011;38721;53.098;6.596;2022-10-31T00:31:25;48.92;;;24.52;;
52858;SDS011;38721;53.098;6.596;2022-10-31T00:33:51;57.20;;;24.83;;
52858;SDS011;38721;53.098;6.596;2022-10-31T00:36:17;61.08;;;25.52;;
52858;SDS011;38721;53.098;6.596;2022-10-31T00:38:44;49.03;;;25.05;;
52858;SDS011;38721;53.098;6.596;2022-10-31T00:41:11;49.65;;;24.90;;
52858;SDS011;38721;53.098;6.596;2022-10-31T00:43:37;53.67;;;25.88;;
52858;SDS011;38721;53.098;6.596;2022-10-31T00:46:03;47.70;;;25.42;;
52858;SDS011;38721;53.098;6.596;2022-10-31T00:48:29;49.95;;;24.88;;
52858;SDS011;38721;53.098;6.596;2022-10-31T00:50:55;52.60;;;25.08;;
52858;SDS011;38721;53.098;6.596;2022-10-31T00:53:21;51.20;;;25.35;;
52858;SDS011;38721;53.098;6.596;2022-10-31T00:55:47;48.80;;;24.58;;
52858;SDS011;38721;53.098;6.596;2022-10-31T00:58:12;54.03;;;26.25;;
52858;SDS011;38721;53.098;6.596;2022-10-31T01:00:38;54.80;;;25.85;;
52858;SDS011;38721;53.098;6.596;2022-10-31T01:03:04;55.38;;;25.17;;
52858;SDS011;38721;53.098;6.596;2022-10-31T01:05:30;45.53;;;24.38;;
52858;SDS011;38721;53.098;6.596;2022-10-31T01:07:56;57.75;;;26.58;;
52858;SDS011;38721;53.098;6.596;2022-10-31T01:10:22;53.03;;;25.23;;
52858;SDS011;38721;53.098;6.596;2022-10-31T01:12:48;47.65;;;24.63;;
52858;SDS011;38721;53.098;6.596;2022-10-31T01:15:16;43.92;;;24.50;;
52858;SDS011;38721;53.098;6.596;2022-10-31T01:17:45;53.42;;;25.55;;
52858;SDS011;38721;53.098;6.596;2022-10-31T01:20:11;50.25;;;24.67;;
52858;SDS011;38721;53.098;6.596;2022-10-31T01:22:38;49.22;;;24.58;;
52858;SDS011;38721;53.098;6.596;2022-10-31T01:25:04;44.65;;;23.45;;
52858;SDS011;38721;53.098;6.596;2022-10-31T01:27:36;49.13;;;23.40;;
52858;SDS011;38721;53.098;6.596;2022-10-31T01:30:02;43.40;;;22.35;;
52858;SDS011;38721;53.098;6.596;2022-10-31T01:32:28;43.33;;;24.40;;
52858;SDS011;38721;53.098;6.596;2022-10-31T01:34:54;44.85;;;22.60;;
52858;SDS011;38721;53.098;6.596;2022-10-31T01:37:20;40.25;;;21.05;;
52858;SDS011;38721;53.098;6.596;2022-10-31T01:39:47;42.97;;;21.92;;
52858;SDS011;38721;53.098;6.596;2022-10-31T01:42:20;37.80;;;20.80;;
52858;SDS011;38721;53.098;6.596;2022-10-31T01:44:51;36.20;;;20.45;;
52858;SDS011;38721;53.098;6.596;2022-10-31T01:47:27;34.60;;;20.38;;
52858;SDS011;38721;53.098;6.596;2022-10-31T01:49:59;39.42;;;19.98;;
52858;SDS011;38721;53.098;6.596;2022-10-31T01:52:31;42.30;;;20.98;;
52858;SDS011;38721;53.098;6.596;2022-10-31T01:57:40;36.88;;;20.92;;
52858;SDS011;38721;53.098;6.596;2022-10-31T02:00:10;34.97;;;18.80;;
52858;SDS011;38721;53.098;6.596;2022-10-31T02:05:22;34.50;;;19.08;;
52858;SDS011;38721;53.098;6.596;2022-10-31T02:10:22;37.60;;;19.42;;
52858;SDS011;38721;53.098;6.596;2022-10-31T02:12:50;34.17;;;20.88;;
52858;SDS011;38721;53.098;6.596;2022-10-31T02:15:18;38.05;;;21.23;;
52858;SDS011;38721;53.098;6.596;2022-10-31T02:17:44;37.35;;;21.73;;
52858;SDS011;38721;53.098;6.596;2022-10-31T02:20:20;42.65;;;22.13;;
52858;SDS011;38721;53.098;6.596;2022-10-31T02:22:53;35.40;;;20.83;;
52858;SDS011;38721;53.098;6.596;2022-10-31T02:31:13;36.92;;;21.02;;
52858;SDS011;38721;53.098;6.596;2022-10-31T02:36:50;42.03;;;23.42;;
52858;SDS011;38721;53.098;6.596;2022-10-31T02:47:28;43.65;;;23.90;;
52858;SDS011;38721;53.098;6.596;2022-10-31T02:50:07;43.47;;;23.33;;
52858;SDS011;38721;53.098;6.596;2022-10-31T02:52:40;48.40;;;22.83;;
52858;SDS011;38721;53.098;6.596;2022-10-31T02:55:10;44.75;;;24.15;;
52858;SDS011;38721;53.098;6.596;2022-10-31T02:57:36;47.33;;;24.10;;
52858;SDS011;38721;53.098;6.596;2022-10-31T03:00:05;45.92;;;24.65;;
52858;SDS011;38721;53.098;6.596;2022-10-31T03:10:51;44.95;;;23.10;;
52858;SDS011;38721;53.098;6.596;2022-10-31T03:13:21;43.83;;;23.85;;
52858;SDS011;38721;53.098;6.596;2022-10-31T03:16:14;43.90;;;24.70;;
52858;SDS011;38721;53.098;6.596;2022-10-31T03:18:53;46.50;;;22.92;;
52858;SDS011;38721;53.098;6.596;2022-10-31T03:21:35;46.70;;;25.55;;
52858;SDS011;38721;53.098;6.596;2022-10-31T03:24:08;44.55;;;25.45;;
52858;SDS011;38721;53.098;6.596;2022-10-31T03:26:47;43.30;;;24.75;;
52858;SDS011;38721;53.098;6.596;2022-10-31T03:29:18;52.80;;;25.67;;
52858;SDS011;38721;53.098;6.596;2022-10-31T03:31:49;45.42;;;24.58;;
52858;SDS011;38721;53.098;6.596;2022-10-31T03:34:19;45.63;;;23.77;;
52858;SDS011;38721;53.098;6.596;2022-10-31T03:36:46;44.65;;;25.45;;
52858;SDS011;38721;53.098;6.596;2022-10-31T03:39:17;46.92;;;25.15;;
52858;SDS011;38721;53.098;6.596;2022-10-31T03:41:48;47.83;;;24.65;;
52858;SDS011;38721;53.098;6.596;2022-10-31T03:44:20;41.00;;;23.73;;
52858;SDS011;38721;53.098;6.596;2022-10-31T03:46:47;44.47;;;26.73;;
52858;SDS011;38721;53.098;6.596;2022-10-31T03:49:13;51.53;;;26.88;;
52858;SDS011;38721;53.098;6.596;2022-10-31T03:51:51;47.95;;;26.08;;
52858;SDS011;38721;53.098;6.596;2022-10-31T03:54:42;95.25;;;29.88;;
52858;SDS011;38721;53.098;6.596;2022-10-31T03:59:58;54.72;;;27.20;;
52858;SDS011;38721;53.098;6.596;2022-10-31T04:02:30;52.58;;;25.08;;
52858;SDS011;38721;53.098;6.596;2022-10-31T04:04:58;46.55;;;24.13;;
52858;SDS011;38721;53.098;6.596;2022-10-31T04:07:25;44.53;;;23.83;;
52858;SDS011;38721;53.098;6.596;2022-10-31T04:09:54;44.40;;;24.73;;
52858;SDS011;38721;53.098;6.596;2022-10-31T04:12:22;47.28;;;25.05;;
52858;SDS011;38721;53.098;6.596;2022-10-31T04:14:50;41.13;;;24.48;;
52858;SDS011;38721;53.098;6.596;2022-10-31T04:17:17;43.40;;;24.80;;
52858;SDS011;38721;53.098;6.596;2022-10-31T04:19:49;39.00;;;24.80;;
52858;SDS011;38721;53.098;6.596;2022-10-31T04:22:15;45.05;;;27.65;;
52858;SDS011;38721;53.098;6.596;2022-10-31T04:24:40;45.90;;;25.08;;
52858;SDS011;38721;53.098;6.596;2022-10-31T04:27:06;43.72;;;25.60;;
52858;SDS011;38721;53.098;6.596;2022-10-31T04:29:32;45.22;;;26.15;;
52858;SDS011;38721;53.098;6.596;2022-10-31T04:31:58;44.20;;;25.40;;
52858;SDS011;38721;53.098;6.596;2022-10-31T04:34:23;55.00;;;28.17;;
52858;SDS011;38721;53.098;6.596;2022-10-31T04:36:49;77.57;;;31.05;;
52858;SDS011;38721;53.098;6.596;2022-10-31T04:39:18;46.00;;;26.25;;
52858;SDS011;38721;53.098;6.596;2022-10-31T04:41:43;46.47;;;27.55;;
52858;SDS011;38721;53.098;6.596;2022-10-31T04:44:09;51.08;;;26.63;;
52858;SDS011;38721;53.098;6.596;2022-10-31T04:46:35;843.40;;;53.42;;
52858;SDS011;38721;53.098;6.596;2022-10-31T04:49:00;55.83;;;24.85;;
52858;SDS011;38721;53.098;6.596;2022-10-31T04:51:26;145.75;;;31.00;;
52858;SDS011;38721;53.098;6.596;2022-10-31T04:53:52;40.55;;;23.75;;
52858;SDS011;38721;53.098;6.596;2022-10-31T04:56:17;43.80;;;24.35;;
52858;SDS011;38721;53.098;6.596;2022-10-31T04:58:43;40.63;;;25.08;;
52858;SDS011;38721;53.098;6.596;2022-10-31T05:01:09;55.08;;;26.88;;
52858;SDS011;38721;53.098;6.596;2022-10-31T05:03:37;41.67;;;24.55;;
52858;SDS011;38721;53.098;6.596;2022-10-31T05:06:05;44.17;;;24.95;;
52858;SDS011;38721;53.098;6.596;2022-10-31T05:08:31;47.25;;;26.90;;
52858;SDS011;38721;53.098;6.596;2022-10-31T05:11:03;52.88;;;28.20;;
52858;SDS011;38721;53.098;6.596;2022-10-31T05:13:29;45.00;;;26.25;;
52858;SDS011;38721;53.098;6.596;2022-10-31T05:15:58;40.13;;;23.33;;
52858;SDS011;38721;53.098;6.596;2022-10-31T05:18:23;40.72;;;23.55;;
52858;SDS011;38721;53.098;6.596;2022-10-31T05:20:49;44.60;;;25.23;;
52858;SDS011;38721;53.098;6.596;2022-10-31T05:23:15;57.65;;;28.48;;
52858;SDS011;38721;53.098;6.596;2022-10-31T05:25:40;51.63;;;27.70;;
52858;SDS011;38721;53.098;6.596;2022-10-31T05:28:09;52.78;;;27.02;;
52858;SDS011;38721;53.098;6.596;2022-10-31T05:30:37;46.05;;;26.30;;
52858;SDS011;38721;53.098;6.596;2022-10-31T05:33:03;45.50;;;26.23;;
52858;SDS011;38721;53.098;6.596;2022-10-31T05:35:30;40.78;;;23.58;;
52858;SDS011;38721;53.098;6.596;2022-10-31T05:37:57;40.78;;;22.83;;
52858;SDS011;38721;53.098;6.596;2022-10-31T05:40:24;47.35;;;25.70;;
52858;SDS011;38721;53.098;6.596;2022-10-31T05:42:51;41.08;;;24.13;;
52858;SDS011;38721;53.098;6.596;2022-10-31T05:45:18;58.78;;;28.80;;
52858;SDS011;38721;53.098;6.596;2022-10-31T05:47:54;44.53;;;23.55;;
52858;SDS011;38721;53.098;6.596;2022-10-31T05:50:24;45.72;;;22.42;;
52858;SDS011;38721;53.098;6.596;2022-10-31T05:53:09;50.72;;;23.15;;
52858;SDS011;38721;53.098;6.596;2022-10-31T05:55:35;42.78;;;23.60;;
52858;SDS011;38721;53.098;6.596;2022-10-31T05:58:04;47.78;;;24.20;;
52858;SDS011;38721;53.098;6.596;2022-10-31T06:00:35;36.97;;;22.85;;
52858;SDS011;38721;53.098;6.596;2022-10-31T06:03:01;40.22;;;23.60;;
52858;SDS011;38721;53.098;6.596;2022-10-31T06:05:29;40.67;;;23.40;;
52858;SDS011;38721;53.098;6.596;2022-10-31T06:07:55;48.67;;;24.33;;
52858;SDS011;38721;53.098;6.596;2022-10-31T06:10:21;43.60;;;22.83;;
52858;SDS011;38721;53.098;6.596;2022-10-31T06:12:47;42.65;;;23.05;;
52858;SDS011;38721;53.098;6.596;2022-10-31T06:15:13;47.22;;;24.20;;
52858;SDS011;38721;53.098;6.596;2022-10-31T06:17:56;38.58;;;22.70;;
52858;SDS011;38721;53.098;6.596;2022-10-31T06:20:23;38.50;;;24.15;;
52858;SDS011;38721;53.098;6.596;2022-10-31T06:22:49;34.72;;;22.17;;
52858;SDS011;38721;53.098;6.596;2022-10-31T06:25:15;50.67;;;24.83;;
52858;SDS011;38721;53.098;6.596;2022-10-31T06:27:41;48.63;;;25.38;;
52858;SDS011;38721;53.098;6.596;2022-10-31T06:30:09;40.50;;;24.13;;
52858;SDS011;38721;53.098;6.596;2022-10-31T06:32:38;54.85;;;26.75;;
52858;SDS011;38721;53.098;6.596;2022-10-31T06:35:07;45.65;;;24.30;;
52858;SDS011;38721;53.098;6.596;2022-10-31T06:37:33;49.88;;;26.15;;
52858;SDS011;38721;53.098;6.596;2022-10-31T06:40:01;37.28;;;22.17;;
52858;SDS011;38721;53.098;6.596;2022-10-31T06:42:36;39.13;;;22.70;;
52858;SDS011;38721;53.098;6.596;2022-10-31T06:45:01;42.97;;;22.73;;
52858;SDS011;38721;53.098;6.596;2022-10-31T06:47:30;35.97;;;22.58;;
52858;SDS011;38721;53.098;6.596;2022-10-31T06:49:58;44.15;;;23.95;;
52858;SDS011;38721;53.098;6.596;2022-10-31T06:52:27;33.97;;;22.05;;
52858;SDS011;38721;53.098;6.596;2022-10-31T06:54:52;44.92;;;24.35;;
52858;SDS011;38721;53.098;6.596;2022-10-31T06:57:18;49.50;;;24.67;;
52858;SDS011;38721;53.098;6.596;2022-10-31T06:59:44;49.75;;;27.08;;
52858;SDS011;38721;53.098;6.596;2022-10-31T07:02:10;47.08;;;25.58;;
52858;SDS011;38721;53.098;6.596;2022-10-31T07:04:36;39.28;;;22.60;;
52858;SDS011;38721;53.098;6.596;2022-10-31T07:07:07;44.28;;;24.45;;
52858;SDS011;38721;53.098;6.596;2022-10-31T07:09:33;43.05;;;24.52;;
52858;SDS011;38721;53.098;6.596;2022-10-31T07:11:59;48.05;;;25.40;;
52858;SDS011;38721;53.098;6.596;2022-10-31T07:14:24;42.65;;;25.33;;
52858;SDS011;38721;53.098;6.596;2022-10-31T07:16:50;50.13;;;25.65;;
52858;SDS011;38721;53.098;6.596;2022-10-31T07:19:16;50.83;;;29.75;;
52858;SDS011;38721;53.098;6.596;2022-10-31T07:21:42;48.22;;;26.63;;
52858;SDS011;38721;53.098;6.596;2022-10-31T07:24:08;38.05;;;23.77;;
52858;SDS011;38721;53.098;6.596;2022-10-31T07:26:33;42.00;;;23.25;;
52858;SDS011;38721;53.098;6.596;2022-10-31T07:29:02;38.58;;;23.02;;
52858;SDS011;38721;53.098;6.596;2022-10-31T07:31:28;42.58;;;23.08;;
52858;SDS011;38721;53.098;6.596;2022-10-31T07:33:54;40.70;;;23.27;;
52858;SDS011;38721;53.098;6.596;2022-10-31T07:36:22;39.92;;;24.20;;
52858;SDS011;38721;53.098;6.596;2022-10-31T07:38:48;33.63;;;21.75;;
52858;SDS011;38721;53.098;6.596;2022-10-31T07:41:14;33.55;;;21.45;;
52858;SDS011;38721;53.098;6.596;2022-10-31T07:43:40;33.97;;;21.17;;
52858;SDS011;38721;53.098;6.596;2022-10-31T07:46:11;40.05;;;23.85;;
52858;SDS011;38721;53.098;6.596;2022-10-31T07:48:40;38.00;;;23.75;;
52858;SDS011;38721;53.098;6.596;2022-10-31T07:51:06;40.08;;;23.35;;
52858;SDS011;38721;53.098;6.596;2022-10-31T07:53:32;34.83;;;23.05;;
52858;SDS011;38721;53.098;6.596;2022-10-31T07:55:57;41.42;;;23.98;;
52858;SDS011;38721;53.098;6.596;2022-10-31T07:58:23;39.03;;;24.48;;
52858;SDS011;38721;53.098;6.596;2022-10-31T08:00:50;38.03;;;23.75;;
52858;SDS011;38721;53.098;6.596;2022-10-31T08:03:16;41.30;;;24.65;;
52858;SDS011;38721;53.098;6.596;2022-10-31T08:05:46;41.38;;;24.02;;
52858;SDS011;38721;53.098;6.596;2022-10-31T08:08:12;37.55;;;24.08;;
52858;SDS011;38721;53.098;6.596;2022-10-31T08:10:47;37.88;;;24.58;;
52858;SDS011;38721;53.098;6.596;2022-10-31T08:13:15;37.58;;;24.98;;
52858;SDS011;38721;53.098;6.596;2022-10-31T08:15:41;46.35;;;24.42;;
52858;SDS011;38721;53.098;6.596;2022-10-31T08:18:11;39.90;;;24.50;;
52858;SDS011;38721;53.098;6.596;2022-10-31T08:20:39;34.40;;;24.30;;
52858;SDS011;38721;53.098;6.596;2022-10-31T08:23:05;37.80;;;24.52;;
52858;SDS011;38721;53.098;6.596;2022-10-31T08:25:32;34.92;;;23.60;;
52858;SDS011;38721;53.098;6.596;2022-10-31T08:28:02;34.58;;;22.77;;
52858;SDS011;38721;53.098;6.596;2022-10-31T08:30:29;35.92;;;22.67;;
52858;SDS011;38721;53.098;6.596;2022-10-31T08:33:00;31.92;;;22.55;;
52858;SDS011;38721;53.098;6.596;2022-10-31T08:35:38;42.25;;;27.13;;
52858;SDS011;38721;53.098;6.596;2022-10-31T08:38:04;34.83;;;23.48;;
52858;SDS011;38721;53.098;6.596;2022-10-31T08:40:31;31.77;;;22.42;;
52858;SDS011;38721;53.098;6.596;2022-10-31T08:43:01;32.25;;;22.90;;
52858;SDS011;38721;53.098;6.596;2022-10-31T08:45:29;32.42;;;22.45;;
52858;SDS011;38721;53.098;6.596;2022-10-31T08:47:57;32.28;;;22.20;;
52858;SDS011;38721;53.098;6.596;2022-10-31T08:50:26;34.55;;;22.58;;
52858;SDS011;38721;53.098;6.596;2022-10-31T08:52:53;30.15;;;21.65;;
52858;SDS011;38721;53.098;6.596;2022-10-31T08:55:21;33.83;;;21.60;;
52858;SDS011;38721;53.098;6.596;2022-10-31T08:57:47;29.95;;;21.30;;
52858;SDS011;38721;53.098;6.596;2022-10-31T09:00:12;30.25;;;21.20;;
52858;SDS011;38721;53.098;6.596;2022-10-31T09:02:38;28.02;;;19.55;;
52858;SDS011;38721;53.098;6.596;2022-10-31T09:05:04;31.40;;;21.58;;
52858;SDS011;38721;53.098;6.596;2022-10-31T09:07:30;32.92;;;21.08;;
52858;SDS011;38721;53.098;6.596;2022-10-31T09:09:56;29.25;;;21.15;;
52858;SDS011;38721;53.098;6.596;2022-10-31T09:12:21;26.67;;;19.55;;
52858;SDS011;38721;53.098;6.596;2022-10-31T09:14:48;28.42;;;20.15;;
52858;SDS011;38721;53.098;6.596;2022-10-31T09:17:14;27.73;;;20.25;;
52858;SDS011;38721;53.098;6.596;2022-10-31T09:19:40;26.70;;;20.13;;
52858;SDS011;38721;53.098;6.596;2022-10-31T09:22:05;26.48;;;19.75;;
52858;SDS011;38721;53.098;6.596;2022-10-31T09:24:31;26.35;;;19.92;;
52858;SDS011;38721;53.098;6.596;2022-10-31T09:26:57;25.35;;;19.15;;
52858;SDS011;38721;53.098;6.596;2022-10-31T09:29:23;27.48;;;19.17;;
52858;SDS011;38721;53.098;6.596;2022-10-31T09:31:49;27.17;;;19.45;;
52858;SDS011;38721;53.098;6.596;2022-10-31T09:34:14;27.38;;;19.38;;
52858;SDS011;38721;53.098;6.596;2022-10-31T09:36:40;24.45;;;19.10;;
52858;SDS011;38721;53.098;6.596;2022-10-31T09:39:06;24.98;;;18.90;;
52858;SDS011;38721;53.098;6.596;2022-10-31T09:41:51;25.48;;;19.92;;
52858;SDS011;38721;53.098;6.596;2022-10-31T09:50:13;22.67;;;17.98;;
52858;SDS011;38721;53.098;6.596;2022-10-31T09:52:51;25.08;;;19.17;;
52858;SDS011;38721;53.098;6.596;2022-10-31T09:55:31;25.98;;;19.65;;
52858;SDS011;38721;53.098;6.596;2022-10-31T09:58:02;25.50;;;19.88;;
52858;SDS011;38721;53.098;6.596;2022-10-31T10:00:29;26.33;;;20.23;;
52858;SDS011;38721;53.098;6.596;2022-10-31T10:03:21;28.35;;;21.15;;
52858;SDS011;38721;53.098;6.596;2022-10-31T10:05:53;29.52;;;22.08;;
52858;SDS011;38721;53.098;6.596;2022-10-31T10:08:25;31.23;;;22.75;;
52858;SDS011;38721;53.098;6.596;2022-10-31T10:11:02;35.83;;;23.73;;
52858;SDS011;38721;53.098;6.596;2022-10-31T10:19:29;31.73;;;23.17;;
52858;SDS011;38721;53.098;6.596;2022-10-31T10:25:13;32.00;;;22.38;;
52858;SDS011;38721;53.098;6.596;2022-10-31T10:27:44;30.73;;;22.38;;
52858;SDS011;38721;53.098;6.596;2022-10-31T10:30:28;30.13;;;22.08;;
52858;SDS011;38721;53.098;6.596;2022-10-31T10:35:30;27.55;;;20.35;;
52858;SDS011;38721;53.098;6.596;2022-10-31T10:40:48;25.58;;;19.60;;
52858;SDS011;38721;53.098;6.596;2022-10-31T10:43:21;30.45;;;20.38;;
52858;SDS011;38721;53.098;6.596;2022-10-31T10:57:06;24.70;;;17.77;;
52858;SDS011;38721;53.098;6.596;2022-10-31T10:59:37;24.15;;;16.60;;
52858;SDS011;38721;53.098;6.596;2022-10-31T11:02:03;20.58;;;16.08;;
52858;SDS011;38721;53.098;6.596;2022-10-31T11:04:40;20.60;;;14.68;;
52858;SDS011;38721;53.098;6.596;2022-10-31T11:07:07;20.77;;;14.60;;
52858;SDS011;38721;53.098;6.596;2022-10-31T11:09:35;17.73;;;13.68;;
52858;SDS011;38721;53.098;6.596;2022-10-31T11:15:02;17.95;;;12.52;;
52858;SDS011;38721;53.098;6.596;2022-10-31T11:17:33;16.98;;;12.52;;
52858;SDS011;38721;53.098;6.596;2022-10-31T11:22:43;16.67;;;11.65;;
52858;SDS011;38721;53.098;6.596;2022-10-31T11:28:09;16.77;;;11.23;;
52858;SDS011;38721;53.098;6.596;2022-10-31T11:30:47;15.48;;;11.00;;
52858;SDS011;38721;53.098;6.596;2022-10-31T11:35:57;14.70;;;10.48;;
52858;SDS011;38721;53.098;6.596;2022-10-31T11:38:28;16.48;;;10.48;;
52858;SDS011;38721;53.098;6.596;2022-10-31T11:41:00;14.15;;;8.77;;
52858;SDS011;38721;53.098;6.596;2022-10-31T11:43:45;13.05;;;9.48;;
52858;SDS011;38721;53.098;6.596;2022-10-31T11:46:15;13.98;;;9.32;;
52858;SDS011;38721;53.098;6.596;2022-10-31T11:48:49;10.10;;;8.27;;
52858;SDS011;38721;53.098;6.596;2022-10-31T11:51:25;14.43;;;7.68;;
52858;SDS011;38721;53.098;6.596;2022-10-31T11:53:55;12.23;;;8.32;;
52858;SDS011;38721;53.098;6.596;2022-10-31T11:56:23;11.38;;;7.47;;
52858;SDS011;38721;53.098;6.596;2022-10-31T11:59:01;11.15;;;7.05;;
52858;SDS011;38721;53.098;6.596;2022-10-31T12:01:31;14.02;;;6.78;;
52858;SDS011;38721;53.098;6.596;2022-10-31T12:06:37;10.93;;;6.80;;
52858;SDS011;38721;53.098;6.596;2022-10-31T12:09:18;11.20;;;6.45;;
52858;SDS011;38721;53.098;6.596;2022-10-31T12:11:52;11.75;;;6.80;;
52858;SDS011;38721;53.098;6.596;2022-10-31T12:17:02;12.93;;;6.75;;
52858;SDS011;38721;53.098;6.596;2022-10-31T12:28:30;10.80;;;4.05;;
52858;SDS011;38721;53.098;6.596;2022-10-31T12:31:24;7.65;;;3.70;;
52858;SDS011;38721;53.098;6.596;2022-10-31T12:47:47;6.50;;;2.88;;
52858;SDS011;38721;53.098;6.596;2022-10-31T12:58:53;9.95;;;4.18;;
52858;SDS011;38721;53.098;6.596;2022-10-31T13:01:32;11.00;;;5.05;;
52858;SDS011;38721;53.098;6.596;2022-10-31T13:07:00;11.63;;;5.75;;
52858;SDS011;38721;53.098;6.596;2022-10-31T13:09:34;15.30;;;5.90;;
52858;SDS011;38721;53.098;6.596;2022-10-31T13:12:10;12.05;;;5.70;;
52858;SDS011;38721;53.098;6.596;2022-10-31T13:14:40;12.40;;;5.97;;
52858;SDS011;38721;53.098;6.596;2022-10-31T13:17:21;12.98;;;6.13;;
52858;SDS011;38721;53.098;6.596;2022-10-31T13:19:51;10.45;;;6.10;;
52858;SDS011;38721;53.098;6.596;2022-10-31T13:22:24;10.10;;;5.85;;
52858;SDS011;38721;53.098;6.596;2022-10-31T13:24:57;9.30;;;5.60;;
52858;SDS011;38721;53.098;6.596;2022-10-31T13:28:12;14.48;;;6.68;;
52858;SDS011;38721;53.098;6.596;2022-10-31T13:30:59;10.77;;;5.32;;
52858;SDS011;38721;53.098;6.596;2022-10-31T13:33:32;11.48;;;5.35;;
52858;SDS011;38721;53.098;6.596;2022-10-31T13:36:09;12.15;;;5.63;;
52858;SDS011;38721;53.098;6.596;2022-10-31T13:45:06;11.52;;;6.57;;
52858;SDS011;38721;53.098;6.596;2022-10-31T13:51:28;14.40;;;6.82;;
52858;SDS011;38721;53.098;6.596;2022-10-31T13:53:57;11.48;;;6.22;;
52858;SDS011;38721;53.098;6.596;2022-10-31T13:56:32;15.80;;;5.80;;
52858;SDS011;38721;53.098;6.596;2022-10-31T13:59:00;8.82;;;5.47;;
52858;SDS011;38721;53.098;6.596;2022-10-31T14:01:36;12.10;;;5.35;;
52858;SDS011;38721;53.098;6.596;2022-10-31T14:04:15;12.45;;;4.65;;
52858;SDS011;38721;53.098;6.596;2022-10-31T14:06:54;11.63;;;4.88;;
52858;SDS011;38721;53.098;6.596;2022-10-31T14:09:29;10.23;;;5.05;;
52858;SDS011;38721;53.098;6.596;2022-10-31T14:11:59;9.05;;;5.20;;
52858;SDS011;38721;53.098;6.596;2022-10-31T14:14:33;13.60;;;6.03;;
52858;SDS011;38721;53.098;6.596;2022-10-31T14:17:12;11.45;;;6.05;;
52858;SDS011;38721;53.098;6.596;2022-10-31T14:19:55;12.73;;;6.60;;
52858;SDS011;38721;53.098;6.596;2022-10-31T14:22:23;13.95;;;7.47;;
52858;SDS011;38721;53.098;6.596;2022-10-31T14:24:55;20.30;;;7.28;;
52858;SDS011;38721;53.098;6.596;2022-10-31T14:29:49;16.15;;;7.95;;
52858;SDS011;38721;53.098;6.596;2022-10-31T14:37:32;17.30;;;8.45;;
52858;SDS011;38721;53.098;6.596;2022-10-31T14:43:30;13.10;;;8.48;;
52858;SDS011;38721;53.098;6.596;2022-10-31T14:49:39;15.30;;;9.68;;
52858;SDS011;38721;53.098;6.596;2022-10-31T14:52:07;14.10;;;9.20;;
52858;SDS011;38721;53.098;6.596;2022-10-31T14:54:41;12.95;;;8.75;;
52858;SDS011;38721;53.098;6.596;2022-10-31T14:57:15;15.80;;;9.02;;
52858;SDS011;38721;53.098;6.596;2022-10-31T14:59:47;17.38;;;8.85;;
52858;SDS011;38721;53.098;6.596;2022-10-31T15:04:51;14.10;;;8.18;;
52858;SDS011;38721;53.098;6.596;2022-10-31T15:07:23;13.50;;;8.07;;
52858;SDS011;38721;53.098;6.596;2022-10-31T15:12:30;15.20;;;7.63;;
52858;SDS011;38721;53.098;6.596;2022-10-31T15:14:57;14.43;;;7.82;;
52858;SDS011;38721;53.098;6.596;2022-10-31T15:17:36;9.95;;;7.20;;
52858;SDS011;38721;53.098;6.596;2022-10-31T15:20:17;13.82;;;7.18;;
52858;SDS011;38721;53.098;6.596;2022-10-31T15:22:47;12.68;;;7.10;;
52858;SDS011;38721;53.098;6.596;2022-10-31T15:25:20;13.13;;;7.30;;
52858;SDS011;38721;53.098;6.596;2022-10-31T15:27:48;13.32;;;7.97;;
52858;SDS011;38721;53.098;6.596;2022-10-31T15:30:25;14.02;;;8.45;;
52858;SDS011;38721;53.098;6.596;2022-10-31T15:32:52;13.55;;;7.28;;
52858;SDS011;38721;53.098;6.596;2022-10-31T15:35:28;10.88;;;6.88;;
52858;SDS011;38721;53.098;6.596;2022-10-31T15:37:56;12.07;;;7.15;;
52858;SDS011;38721;53.098;6.596;2022-10-31T15:40:30;15.70;;;7.25;;
52858;SDS011;38721;53.098;6.596;2022-10-31T15:43:00;13.65;;;7.07;;
52858;SDS011;38721;53.098;6.596;2022-10-31T15:45:28;12.38;;;6.95;;
52858;SDS011;38721;53.098;6.596;2022-10-31T15:47:56;11.68;;;6.85;;
52858;SDS011;38721;53.098;6.596;2022-10-31T15:50:31;14.05;;;6.90;;
52858;SDS011;38721;53.098;6.596;2022-10-31T15:53:05;11.57;;;6.97;;
52858;SDS011;38721;53.098;6.596;2022-10-31T15:55:49;12.43;;;6.70;;
52858;SDS011;38721;53.098;6.596;2022-10-31T15:58:18;15.45;;;7.72;;
52858;SDS011;38721;53.098;6.596;2022-10-31T16:00:44;14.30;;;6.85;;
52858;SDS011;38721;53.098;6.596;2022-10-31T16:05:54;10.60;;;5.90;;
52858;SDS011;38721;53.098;6.596;2022-10-31T16:10:53;9.80;;;5.70;;
52858;SDS011;38721;53.098;6.596;2022-10-31T16:13:36;12.80;;;6.03;;
52858;SDS011;38721;53.098;6.596;2022-10-31T16:16:12;7.97;;;5.65;;
52858;SDS011;38721;53.098;6.596;2022-10-31T16:18:41;10.68;;;5.88;;
52858;SDS011;38721;53.098;6.596;2022-10-31T16:21:07;11.48;;;5.40;;
52858;SDS011;38721;53.098;6.596;2022-10-31T16:23:34;7.97;;;4.60;;
52858;SDS011;38721;53.098;6.596;2022-10-31T16:26:06;9.48;;;6.22;;
52858;SDS011;38721;53.098;6.596;2022-10-31T16:28:33;14.35;;;7.10;;
52858;SDS011;38721;53.098;6.596;2022-10-31T16:30:59;13.98;;;6.28;;
52858;SDS011;38721;53.098;6.596;2022-10-31T16:33:32;11.00;;;6.20;;
52858;SDS011;38721;53.098;6.596;2022-10-31T16:36:29;10.25;;;6.47;;
52858;SDS011;38721;53.098;6.596;2022-10-31T16:38:53;16.25;;;9.68;;
52858;SDS011;38721;53.098;6.596;2022-10-31T16:41:19;9.88;;;7.40;;
52858;SDS011;38721;53.098;6.596;2022-10-31T16:43:45;12.65;;;7.15;;
52858;SDS011;38721;53.098;6.596;2022-10-31T16:46:14;11.50;;;8.05;;
52858;SDS011;38721;53.098;6.596;2022-10-31T16:48:43;13.38;;;7.93;;
52858;SDS011;38721;53.098;6.596;2022-10-31T16:51:09;11.73;;;9.05;;
52858;SDS011;38721;53.098;6.596;2022-10-31T16:53:35;13.02;;;9.32;;
52858;SDS011;38721;53.098;6.596;2022-10-31T16:56:02;13.48;;;9.60;;
52858;SDS011;38721;53.098;6.596;2022-10-31T16:58:32;14.05;;;10.15;;
52858;SDS011;38721;53.098;6.596;2022-10-31T17:01:00;14.30;;;9.85;;
52858;SDS011;38721;53.098;6.596;2022-10-31T17:03:32;13.32;;;10.75;;
52858;SDS011;38721;53.098;6.596;2022-10-31T17:06:01;14.90;;;11.70;;
52858;SDS011;38721;53.098;6.596;2022-10-31T17:08:26;18.05;;;12.55;;
52858;SDS011;38721;53.098;6.596;2022-10-31T17:10:55;20.33;;;11.75;;
52858;SDS011;38721;53.098;6.596;2022-10-31T17:13:24;19.77;;;13.05;;
52858;SDS011;38721;53.098;6.596;2022-10-31T17:15:53;16.40;;;11.77;;